Time;durP1;ratioP1;P1;durP2;ratioP2;P2;SDS_P1;SDS_P2;PMS_P1;PMS_P2;Temp;Humidity;BMP_temperature;BMP_pressure;BME280_temperature;BME280_humidity;BME280_pressure;Samples;Min_cycle;Max_cycle;Signal;HPM_P1;HPM_P2
2021/09/05 00:00:47;;;;;;;11.40;9.50;;;18.20;74.50;;;;;;4937462;29;20474;-47
2021/09/05 00:03:13;;;;;;;14.30;9.00;;;18.20;74.50;;;;;;4937805;29;20515;-47
2021/09/05 00:05:40;;;;;;;11.57;8.83;;;18.10;74.40;;;;;;4936568;29;20468;-47
2021/09/05 00:08:07;;;;;;;13.30;9.67;;;18.10;74.50;;;;;;4935719;29;20466;-47
2021/09/05 00:10:34;;;;;;;13.67;9.10;;;18.10;74.50;;;;;;4940206;29;20999;-47
2021/09/05 00:13:00;;;;;;;14.20;9.33;;;18.10;74.60;;;;;;4932323;29;20500;-47
2021/09/05 00:15:27;;;;;;;11.70;9.23;;;18.00;74.70;;;;;;4935908;29;20865;-47
2021/09/05 00:17:54;;;;;;;12.17;9.30;;;18.00;74.80;;;;;;4932396;29;20466;-47
2021/09/05 00:20:21;;;;;;;11.17;9.43;;;18.00;74.80;;;;;;4934440;29;20464;-47
2021/09/05 00:22:47;;;;;;;16.50;9.13;;;18.00;74.90;;;;;;4939235;29;20471;-47
2021/09/05 00:25:14;;;;;;;11.80;9.30;;;18.00;75.10;;;;;;4937907;29;20470;-47
2021/09/05 00:27:41;;;;;;;10.13;9.03;;;18.00;75.20;;;;;;4940625;29;20464;-47
2021/09/05 00:30:09;;;;;;;11.60;9.60;;;17.90;75.20;;;;;;4936497;29;20456;-47
2021/09/05 00:32:35;;;;;;;11.70;9.23;;;17.90;75.20;;;;;;4935834;29;20520;-47
2021/09/05 00:35:03;;;;;;;13.83;9.57;;;17.90;75.30;;;;;;4936764;29;20486;-47
2021/09/05 00:37:30;;;;;;;13.50;9.80;;;17.90;75.40;;;;;;4937470;29;20834;-47
2021/09/05 00:39:57;;;;;;;15.30;9.80;;;17.90;75.40;;;;;;4936922;29;20471;-47
2021/09/05 00:42:25;;;;;;;12.17;9.90;;;17.80;75.50;;;;;;4934474;29;20468;-47
2021/09/05 00:44:53;;;;;;;13.27;10.60;;;17.80;75.50;;;;;;4937210;29;20471;-47
2021/09/05 00:47:20;;;;;;;12.10;9.77;;;17.80;75.60;;;;;;4942222;29;20449;-47
2021/09/05 00:49:47;;;;;;;12.80;9.13;;;17.80;75.50;;;;;;4936816;29;20888;-47
2021/09/05 00:52:15;;;;;;;12.57;9.77;;;17.80;75.60;;;;;;4939071;28;20579;-47
2021/09/05 00:54:43;;;;;;;10.33;9.23;;;17.70;75.70;;;;;;4935450;29;20471;-47
2021/09/05 00:57:12;;;;;;;11.07;9.47;;;17.70;75.80;;;;;;4935628;28;20660;-47
2021/09/05 00:59:40;;;;;;;14.23;10.37;;;17.70;75.90;;;;;;4937000;29;20460;-47
2021/09/05 01:02:07;;;;;;;11.20;9.40;;;17.70;75.90;;;;;;4918068;29;20473;-47
2021/09/05 01:04:35;;;;;;;13.93;10.57;;;17.70;75.80;;;;;;4937547;29;20464;-47
2021/09/05 01:07:03;;;;;;;11.40;9.83;;;17.60;75.90;;;;;;4935144;29;20458;-47
2021/09/05 01:09:30;;;;;;;12.00;9.90;;;17.60;76.00;;;;;;4937633;29;20463;-47
2021/09/05 01:11:58;;;;;;;13.80;10.53;;;17.60;76.00;;;;;;4938404;29;20978;-47
2021/09/05 01:14:25;;;;;;;9.93;8.90;;;17.60;76.00;;;;;;4934453;29;20488;-47
2021/09/05 01:16:53;;;;;;;11.50;9.00;;;17.50;75.90;;;;;;4933840;29;20642;-47
2021/09/05 01:19:22;;;;;;;11.60;9.57;;;17.50;75.90;;;;;;4936695;29;20459;-47
2021/09/05 01:21:51;;;;;;;10.53;9.03;;;17.50;76.00;;;;;;4937946;29;20456;-47
2021/09/05 01:24:20;;;;;;;12.93;11.23;;;17.50;76.10;;;;;;4935957;29;20449;-47
2021/09/05 01:26:49;;;;;;;13.70;9.90;;;17.50;76.10;;;;;;4937861;29;20468;-48
2021/09/05 01:29:16;;;;;;;14.80;10.07;;;17.40;76.20;;;;;;4938562;29;20466;-47
2021/09/05 01:31:43;;;;;;;11.10;8.70;;;17.40;76.20;;;;;;4942233;29;20460;-47
2021/09/05 01:34:15;;;;;;;12.63;9.87;;;17.40;76.30;;;;;;4942707;29;20496;-47
2021/09/05 01:36:43;;;;;;;14.60;10.50;;;17.40;76.30;;;;;;4943639;29;20466;-47
2021/09/05 01:39:12;;;;;;;13.97;10.27;;;17.30;76.40;;;;;;4935861;29;20457;-47
2021/09/05 01:41:40;;;;;;;14.70;11.10;;;17.30;76.50;;;;;;4936278;28;20470;-47
2021/09/05 01:44:16;;;;;;;17.00;10.83;;;17.30;76.50;;;;;;4940581;29;20478;-47
2021/09/05 01:46:43;;;;;;;12.67;10.07;;;17.30;76.50;;;;;;4940961;29;20847;-47
2021/09/05 01:49:10;;;;;;;14.20;10.80;;;17.30;76.60;;;;;;4944114;29;20466;-47
2021/09/05 01:51:36;;;;;;;12.20;9.70;;;17.30;76.70;;;;;;4943174;29;20467;-47
2021/09/05 01:54:04;;;;;;;13.40;10.73;;;17.20;76.80;;;;;;4939491;29;20506;-47
2021/09/05 01:56:32;;;;;;;13.53;10.40;;;17.20;76.90;;;;;;4938106;29;20976;-47
2021/09/05 01:59:02;;;;;;;12.63;9.50;;;17.20;76.90;;;;;;4940379;29;20510;-47
2021/09/05 02:01:31;;;;;;;17.27;10.50;;;17.20;77.00;;;;;;4934453;29;20972;-45
2021/09/05 02:03:59;;;;;;;11.90;10.17;;;17.20;77.00;;;;;;4931018;29;20906;-46
2021/09/05 02:06:27;;;;;;;11.50;9.63;;;17.20;77.20;;;;;;4927702;29;20465;-46
2021/09/05 02:08:55;;;;;;;12.40;11.10;;;17.20;77.20;;;;;;4931390;29;20532;-45
2021/09/05 02:11:21;;;;;;;12.13;10.03;;;17.20;77.30;;;;;;4929891;29;20477;-46
2021/09/05 02:13:49;;;;;;;13.70;9.83;;;17.20;77.30;;;;;;4927485;29;20495;-46
2021/09/05 02:16:16;;;;;;;13.23;10.67;;;17.20;77.30;;;;;;4925492;29;20480;-45
2021/09/05 02:18:43;;;;;;;11.50;8.97;;;17.20;77.30;;;;;;4931667;29;20494;-45
2021/09/05 02:21:10;;;;;;;13.10;9.60;;;17.20;77.40;;;;;;4933662;29;20467;-43
2021/09/05 02:23:36;;;;;;;13.00;10.27;;;17.20;77.40;;;;;;4929712;29;20978;-43
2021/09/05 02:26:03;;;;;;;13.17;9.70;;;17.20;77.40;;;;;;4925439;29;20464;-43
2021/09/05 02:28:30;;;;;;;12.33;10.43;;;17.20;77.40;;;;;;4926590;29;20831;-43
2021/09/05 02:30:57;;;;;;;15.80;10.67;;;17.20;77.40;;;;;;4932000;29;20471;-43
2021/09/05 02:33:23;;;;;;;12.50;9.47;;;17.20;77.50;;;;;;4931036;29;20487;-43
2021/09/05 02:35:50;;;;;;;13.47;10.30;;;17.20;77.50;;;;;;4927599;29;20457;-43
2021/09/05 02:38:17;;;;;;;12.50;9.90;;;17.20;77.50;;;;;;4925749;29;20456;-42
2021/09/05 02:40:44;;;;;;;13.40;9.17;;;17.10;77.50;;;;;;4930869;29;20549;-43
2021/09/05 02:43:11;;;;;;;13.70;10.47;;;17.10;77.50;;;;;;4928974;29;20460;-43
2021/09/05 02:45:40;;;;;;;14.73;10.70;;;17.10;77.60;;;;;;4931965;29;20491;-43
2021/09/05 02:48:07;;;;;;;13.90;9.70;;;17.10;77.70;;;;;;4928328;29;20483;-43
2021/09/05 02:50:34;;;;;;;13.83;10.10;;;17.10;77.80;;;;;;4932649;29;20459;-43
2021/09/05 02:53:00;;;;;;;12.00;10.40;;;17.10;77.80;;;;;;4926601;29;20489;-43
2021/09/05 02:55:27;;;;;;;11.40;9.23;;;17.10;77.90;;;;;;4933459;29;20460;-43
2021/09/05 02:57:54;;;;;;;11.50;9.27;;;17.10;77.90;;;;;;4929544;29;21037;-43
2021/09/05 03:00:21;;;;;;;15.23;11.13;;;17.10;77.90;;;;;;4925499;29;20460;-43
2021/09/05 03:02:48;;;;;;;13.20;10.70;;;17.00;78.00;;;;;;4930266;29;20550;-43
2021/09/05 03:05:15;;;;;;;12.43;10.57;;;17.00;78.00;;;;;;4931106;29;20460;-42
2021/09/05 03:07:41;;;;;;;10.30;9.13;;;17.00;77.90;;;;;;4927575;29;20852;-43
2021/09/05 03:10:09;;;;;;;14.83;10.83;;;17.00;77.80;;;;;;4927172;29;20467;-43
2021/09/05 03:12:36;;;;;;;12.27;9.80;;;17.00;77.80;;;;;;4923579;29;20473;-43
2021/09/05 03:15:03;;;;;;;13.47;9.40;;;17.00;77.90;;;;;;4931318;29;20869;-43
2021/09/05 03:17:31;;;;;;;11.97;9.13;;;16.90;78.00;;;;;;4930774;29;20471;-43
2021/09/05 03:19:58;;;;;;;14.40;9.57;;;16.90;78.00;;;;;;4927012;29;20460;-43
2021/09/05 03:22:24;;;;;;;13.80;9.43;;;16.90;78.00;;;;;;4926441;29;20464;-43
2021/09/05 03:24:51;;;;;;;12.50;9.80;;;16.90;78.10;;;;;;4922278;29;20479;-43
2021/09/05 03:27:18;;;;;;;14.87;10.43;;;16.90;78.10;;;;;;4934696;29;20468;-43
2021/09/05 03:29:44;;;;;;;12.70;10.57;;;16.80;78.10;;;;;;4928758;29;20472;-43
2021/09/05 03:32:11;;;;;;;13.33;10.27;;;16.80;78.20;;;;;;4924356;29;20460;-43
2021/09/05 03:34:38;;;;;;;10.90;9.10;;;16.80;78.20;;;;;;4924809;29;20867;-43
2021/09/05 03:37:05;;;;;;;11.87;9.90;;;16.80;78.20;;;;;;4924364;29;20825;-43
2021/09/05 03:39:32;;;;;;;12.07;10.33;;;16.70;78.20;;;;;;4928251;28;20455;-43
2021/09/05 03:41:58;;;;;;;15.90;10.47;;;16.70;78.20;;;;;;4931733;29;20472;-43
2021/09/05 03:44:25;;;;;;;12.27;9.83;;;16.60;78.30;;;;;;4923957;29;20817;-43
2021/09/05 03:46:52;;;;;;;12.10;9.90;;;16.60;78.40;;;;;;4929880;29;20478;-43
2021/09/05 03:49:18;;;;;;;12.73;9.63;;;16.60;78.60;;;;;;4928665;29;20947;-43
2021/09/05 03:51:45;;;;;;;12.70;10.70;;;16.60;78.60;;;;;;4928126;29;20468;-43
2021/09/05 03:54:12;;;;;;;13.80;10.40;;;16.60;78.70;;;;;;4925244;29;20498;-43
2021/09/05 03:56:39;;;;;;;14.00;10.57;;;16.60;78.60;;;;;;4928714;29;20464;-43
2021/09/05 03:59:05;;;;;;;14.33;11.20;;;16.50;78.70;;;;;;4928420;29;20802;-43
2021/09/05 04:01:32;;;;;;;17.90;16.00;;;16.50;78.70;;;;;;4928422;28;20471;-43
2021/09/05 04:03:59;;;;;;;15.80;14.10;;;16.50;78.70;;;;;;4925066;29;20469;-43
2021/09/05 04:06:26;;;;;;;15.50;13.20;;;16.40;78.80;;;;;;4927516;29;20472;-43
2021/09/05 04:08:55;;;;;;;11.97;10.73;;;16.40;78.70;;;;;;4925232;29;20472;-43
2021/09/05 04:11:22;;;;;;;12.03;9.73;;;16.40;78.70;;;;;;4926353;29;20805;-43
2021/09/05 04:13:48;;;;;;;13.03;10.63;;;16.40;78.70;;;;;;4926672;29;20514;-43
2021/09/05 04:16:15;;;;;;;15.33;10.20;;;16.40;78.70;;;;;;4924447;29;20479;-43
2021/09/05 04:18:42;;;;;;;13.03;10.17;;;16.30;78.70;;;;;;4926606;29;21066;-43
2021/09/05 04:21:09;;;;;;;12.73;10.30;;;16.30;78.80;;;;;;4930194;29;20469;-43
2021/09/05 04:23:36;;;;;;;13.10;10.50;;;16.30;78.80;;;;;;4931707;28;20800;-43
2021/09/05 04:26:02;;;;;;;14.40;11.67;;;16.30;78.90;;;;;;4922525;29;20981;-43
2021/09/05 04:28:29;;;;;;;11.40;9.03;;;16.30;78.90;;;;;;4928038;29;20488;-43
2021/09/05 04:30:56;;;;;;;12.93;10.30;;;16.30;78.90;;;;;;4923026;29;20467;-43
2021/09/05 04:33:23;;;;;;;12.70;10.07;;;16.20;79.00;;;;;;4928265;29;20492;-43
2021/09/05 04:35:49;;;;;;;15.00;10.50;;;16.20;79.00;;;;;;4925593;29;20460;-43
2021/09/05 04:38:16;;;;;;;11.30;10.07;;;16.20;79.10;;;;;;4928467;29;20463;-43
2021/09/05 04:40:43;;;;;;;15.03;10.13;;;16.20;79.10;;;;;;4926312;29;20472;-43
2021/09/05 04:43:09;;;;;;;13.07;9.67;;;16.20;79.20;;;;;;4924640;29;20471;-43
2021/09/05 04:45:36;;;;;;;15.23;10.13;;;16.20;79.20;;;;;;4930914;29;21241;-43
2021/09/05 04:48:03;;;;;;;14.50;11.13;;;16.20;79.30;;;;;;4921726;29;20813;-43
2021/09/05 04:50:30;;;;;;;15.60;9.77;;;16.10;79.40;;;;;;4932636;29;20976;-43
2021/09/05 04:52:57;;;;;;;12.87;10.63;;;16.10;79.70;;;;;;4926041;29;20488;-43
2021/09/05 04:55:23;;;;;;;13.73;10.20;;;16.10;79.80;;;;;;4928035;29;20460;-42
2021/09/05 04:57:50;;;;;;;17.67;10.80;;;16.10;79.90;;;;;;4927892;28;20467;-43
2021/09/05 05:00:17;;;;;;;17.17;10.20;;;16.10;79.90;;;;;;4924082;29;20470;-43
2021/09/05 05:02:44;;;;;;;13.10;10.00;;;16.10;79.90;;;;;;4924692;29;20465;-43
2021/09/05 05:05:11;;;;;;;13.47;10.97;;;16.10;79.90;;;;;;4924051;29;20471;-43
2021/09/05 05:07:38;;;;;;;12.07;10.20;;;16.10;79.90;;;;;;4933973;29;20498;-43
2021/09/05 05:10:05;;;;;;;18.20;11.80;;;16.00;79.90;;;;;;4928445;29;20486;-43
2021/09/05 05:12:32;;;;;;;14.97;11.00;;;16.00;80.00;;;;;;4929769;29;20494;-43
2021/09/05 05:14:59;;;;;;;13.30;10.23;;;16.00;80.00;;;;;;4929750;29;20503;-43
2021/09/05 05:17:26;;;;;;;14.70;11.20;;;16.00;80.00;;;;;;4931867;29;20800;-43
2021/09/05 05:19:52;;;;;;;15.67;11.97;;;16.00;80.10;;;;;;4930974;29;20468;-43
2021/09/05 05:22:19;;;;;;;13.73;10.43;;;16.00;80.10;;;;;;4927602;29;20456;-43
2021/09/05 05:24:46;;;;;;;13.63;10.60;;;16.00;79.90;;;;;;4925518;29;20478;-43
2021/09/05 05:27:12;;;;;;;12.93;10.10;;;16.00;79.80;;;;;;4932607;29;20851;-43
2021/09/05 05:29:39;;;;;;;12.53;10.00;;;16.00;79.80;;;;;;4930208;29;20625;-43
2021/09/05 05:32:06;;;;;;;14.57;10.60;;;16.00;79.70;;;;;;4932813;29;20524;-43
2021/09/05 05:34:33;;;;;;;14.20;10.50;;;16.00;79.70;;;;;;4931002;29;20487;-43
2021/09/05 05:37:03;;;;;;;12.90;10.47;;;16.00;79.70;;;;;;4928437;29;20482;-43
2021/09/05 05:39:30;;;;;;;13.10;10.13;;;16.00;79.80;;;;;;4928520;29;20891;-43
2021/09/05 05:41:57;;;;;;;15.93;11.30;;;16.00;79.90;;;;;;4927785;29;20451;-43
2021/09/05 05:44:24;;;;;;;14.20;11.27;;;16.10;79.90;;;;;;4930614;29;20468;-43
2021/09/05 05:46:51;;;;;;;12.67;10.50;;;16.10;79.90;;;;;;4930069;29;20826;-43
2021/09/05 05:49:18;;;;;;;17.97;11.40;;;16.10;80.00;;;;;;4924348;29;20895;-43
2021/09/05 05:51:44;;;;;;;16.70;12.43;;;16.10;80.00;;;;;;4927311;29;20551;-43
2021/09/05 05:54:14;;;;;;;16.60;12.27;;;16.20;80.00;;;;;;4932321;29;20496;-43
2021/09/05 05:56:44;;;;;;;14.83;11.30;;;16.20;80.10;;;;;;4933633;29;20763;-43
2021/09/05 05:59:11;;;;;;;16.60;11.53;;;16.20;80.10;;;;;;4931978;29;20467;-43
2021/09/05 06:01:41;;;;;;;12.53;10.60;;;16.30;80.20;;;;;;4928814;29;20464;-43
2021/09/05 06:04:09;;;;;;;17.47;12.83;;;16.30;80.20;;;;;;4928592;29;20468;-43
2021/09/05 06:06:39;;;;;;;16.50;11.27;;;16.30;80.30;;;;;;4931250;29;21015;-43
2021/09/05 06:09:06;;;;;;;18.00;13.17;;;16.40;80.40;;;;;;4927941;29;20475;-43
2021/09/05 06:11:32;;;;;;;17.37;12.43;;;16.40;80.50;;;;;;4928178;29;20475;-43
2021/09/05 06:13:59;;;;;;;17.10;12.00;;;16.50;80.60;;;;;;4926505;29;20491;-43
2021/09/05 06:16:29;;;;;;;17.73;12.60;;;16.50;80.70;;;;;;4929091;29;20460;-43
2021/09/05 06:18:56;;;;;;;19.50;12.73;;;16.60;80.70;;;;;;4929759;29;20456;-43
2021/09/05 06:21:23;;;;;;;17.10;12.90;;;16.60;80.70;;;;;;4913822;29;20987;-43
2021/09/05 06:23:49;;;;;;;24.67;15.23;;;16.70;80.80;;;;;;4926972;29;20982;-43
2021/09/05 06:26:16;;;;;;;20.23;14.50;;;16.80;81.00;;;;;;4928949;29;21003;-43
2021/09/05 06:28:43;;;;;;;21.07;13.43;;;16.80;81.00;;;;;;4929636;29;20480;-43
2021/09/05 06:31:10;;;;;;;20.13;13.83;;;16.90;80.90;;;;;;4929254;29;20464;-43
2021/09/05 06:33:37;;;;;;;21.20;13.33;;;17.00;80.90;;;;;;4929796;29;20496;-43
2021/09/05 06:36:05;;;;;;;17.13;14.33;;;17.10;80.80;;;;;;4926047;29;20468;-43
2021/09/05 06:38:31;;;;;;;21.00;14.33;;;17.10;80.80;;;;;;4930118;29;20467;-43
2021/09/05 06:40:58;;;;;;;19.50;13.10;;;17.20;80.70;;;;;;4928713;29;20614;-40
2021/09/05 06:43:25;;;;;;;18.20;13.63;;;17.20;80.60;;;;;;4926218;29;20467;-40
2021/09/05 06:45:52;;;;;;;16.63;13.10;;;17.30;80.40;;;;;;4926583;29;20463;-43
2021/09/05 06:48:38;;;;;;;19.90;13.37;;;17.40;80.30;;;;;;4929916;29;20468;-43
2021/09/05 06:51:05;;;;;;;20.73;13.80;;;17.40;80.30;;;;;;4929041;29;20519;-43
2021/09/05 06:53:32;;;;;;;16.47;12.50;;;17.50;80.30;;;;;;4929280;29;20498;-43
2021/09/05 06:55:59;;;;;;;17.70;12.53;;;17.60;80.10;;;;;;4927245;29;20923;-43
2021/09/05 06:58:26;;;;;;;21.90;13.83;;;17.60;80.00;;;;;;4927579;29;20660;-43
2021/09/05 07:00:53;;;;;;;19.83;12.83;;;17.70;79.60;;;;;;4928550;29;20793;-43
2021/09/05 07:03:20;;;;;;;21.20;13.60;;;17.70;79.50;;;;;;4930088;29;20465;-43
2021/09/05 07:05:49;;;;;;;16.03;12.97;;;17.80;79.20;;;;;;4926785;29;20555;-43
2021/09/05 07:08:18;;;;;;;18.70;12.80;;;17.90;79.20;;;;;;4927681;29;20468;-43
2021/09/05 07:10:44;;;;;;;17.97;12.83;;;18.00;79.10;;;;;;4928678;29;20471;-43
2021/09/05 07:13:11;;;;;;;19.87;13.63;;;18.10;78.70;;;;;;4927528;29;20520;-43
2021/09/05 07:15:38;;;;;;;18.90;13.33;;;18.20;78.10;;;;;;4928007;29;20493;-43
2021/09/05 07:18:04;;;;;;;21.43;14.30;;;18.40;76.90;;;;;;4929537;29;20488;-43
2021/09/05 07:20:31;;;;;;;20.20;14.43;;;18.40;76.20;;;;;;4927067;29;20461;-43
2021/09/05 07:22:58;;;;;;;22.60;14.20;;;18.60;75.90;;;;;;4926192;29;20869;-43
2021/09/05 07:25:27;;;;;;;15.90;12.17;;;18.70;75.60;;;;;;4929724;29;20478;-42
2021/09/05 07:27:54;;;;;;;19.30;13.83;;;18.80;75.40;;;;;;4930680;29;20501;-42
2021/09/05 07:30:21;;;;;;;18.20;13.57;;;18.90;75.00;;;;;;4926027;29;20471;-42
2021/09/05 07:32:48;;;;;;;19.97;12.80;;;19.10;74.80;;;;;;4923373;29;20497;-42
2021/09/05 07:35:14;;;;;;;19.40;13.67;;;19.30;74.30;;;;;;4929697;29;20499;-42
2021/09/05 07:37:48;;;;;;;19.23;13.60;;;19.40;74.00;;;;;;4926878;29;20859;-42
2021/09/05 07:40:16;;;;;;;16.03;12.43;;;19.60;73.40;;;;;;4925259;29;20840;-42
2021/09/05 07:42:43;;;;;;;17.97;12.60;;;19.80;72.30;;;;;;4927765;29;20457;-42
2021/09/05 07:45:10;;;;;;;16.53;12.73;;;20.00;72.20;;;;;;4926893;29;20459;-42
2021/09/05 07:47:38;;;;;;;15.07;11.90;;;20.20;71.80;;;;;;4925322;28;20467;-42
2021/09/05 07:50:06;;;;;;;17.17;11.87;;;20.40;70.60;;;;;;4927861;29;20471;-42
2021/09/05 07:52:34;;;;;;;19.60;13.17;;;20.60;69.40;;;;;;4926196;29;20477;-42
2021/09/05 07:55:01;;;;;;;18.17;12.53;;;20.70;69.00;;;;;;4927469;29;20506;-42
2021/09/05 07:57:28;;;;;;;17.30;13.10;;;20.90;68.30;;;;;;4930848;29;20472;-42
2021/09/05 07:59:54;;;;;;;17.60;14.70;;;21.10;67.90;;;;;;4930977;29;20459;-42
2021/09/05 08:02:21;;;;;;;20.90;13.23;;;21.30;67.30;;;;;;4925965;29;20461;-42
2021/09/05 08:04:48;;;;;;;16.70;11.60;;;21.40;66.20;;;;;;4925704;29;20486;-42
2021/09/05 08:07:15;;;;;;;18.07;12.83;;;21.50;66.00;;;;;;4928268;29;20973;-42
2021/09/05 08:09:42;;;;;;;19.70;13.07;;;21.70;65.90;;;;;;4923377;29;20484;-42
2021/09/05 08:12:09;;;;;;;19.07;12.73;;;21.90;65.90;;;;;;4926179;29;20877;-42
2021/09/05 08:14:36;;;;;;;18.70;13.70;;;22.00;65.80;;;;;;4928283;29;20503;-42
2021/09/05 08:17:03;;;;;;;17.87;12.80;;;22.30;65.50;;;;;;4929748;29;20829;-42
2021/09/05 08:19:30;;;;;;;22.30;13.63;;;22.50;64.90;;;;;;4931970;29;21011;-42
2021/09/05 08:21:56;;;;;;;16.20;13.17;;;22.60;63.70;;;;;;4928069;29;20477;-42
2021/09/05 08:24:23;;;;;;;17.70;12.60;;;22.80;62.60;;;;;;4929605;29;20550;-42
2021/09/05 08:26:50;;;;;;;18.43;13.00;;;23.00;62.50;;;;;;4925587;29;20448;-42
2021/09/05 08:29:17;;;;;;;16.37;12.40;;;23.10;61.80;;;;;;4928743;29;20464;-42
2021/09/05 08:31:43;;;;;;;17.07;13.80;;;23.30;61.10;;;;;;4927280;29;20466;-42
2021/09/05 08:34:10;;;;;;;21.43;12.93;;;23.50;61.10;;;;;;4923996;29;20863;-42
2021/09/05 08:36:37;;;;;;;20.53;14.50;;;23.60;60.00;;;;;;4926397;29;20460;-42
2021/09/05 08:39:03;;;;;;;20.13;12.73;;;23.70;59.80;;;;;;4926592;29;20455;-43
2021/09/05 08:41:31;;;;;;;17.90;12.93;;;23.80;59.60;;;;;;4928324;28;20971;-42
2021/09/05 08:43:58;;;;;;;17.27;12.30;;;24.10;59.20;;;;;;4926629;29;20454;-42
2021/09/05 08:46:25;;;;;;;15.57;12.37;;;24.30;58.60;;;;;;4928873;29;20468;-42
2021/09/05 08:48:54;;;;;;;16.53;12.00;;;24.50;58.00;;;;;;4928715;28;20473;-42
2021/09/05 08:51:21;;;;;;;17.37;13.10;;;24.70;57.50;;;;;;4926157;29;20443;-42
2021/09/05 08:53:48;;;;;;;14.27;11.97;;;25.00;56.90;;;;;;4929139;29;20451;-43
2021/09/05 08:56:15;;;;;;;14.67;11.07;;;25.20;56.50;;;;;;4928459;29;20495;-42
2021/09/05 08:58:41;;;;;;;14.90;11.87;;;25.40;55.90;;;;;;4927511;29;20850;-43
2021/09/05 09:01:20;;;;;;;13.67;11.60;;;25.50;55.50;;;;;;4925808;29;20542;-43
2021/09/05 09:03:47;;;;;;;20.67;12.27;;;25.70;55.20;;;;;;4926125;29;20452;-42
2021/09/05 09:06:20;;;;;;;15.10;11.13;;;25.90;54.70;;;;;;4926052;29;20854;-43
2021/09/05 09:09:02;;;;;;;15.03;11.40;;;26.10;54.40;;;;;;4927271;29;20444;-43
2021/09/05 09:11:55;;;;;;;15.80;11.00;;;26.30;53.60;;;;;;4930958;29;20449;-43
2021/09/05 09:14:24;;;;;;;16.80;12.83;;;26.60;53.50;;;;;;4927474;29;20498;-43
2021/09/05 09:16:51;;;;;;;16.53;12.10;;;26.70;52.70;;;;;;4927087;29;20870;-43
2021/09/05 09:19:26;;;;;;;13.47;11.30;;;26.90;52.60;;;;;;4922987;29;20452;-42
2021/09/05 09:21:53;;;;;;;15.50;11.73;;;27.10;51.90;;;;;;4929014;29;20450;-42
2021/09/05 09:24:22;;;;;;;13.70;11.00;;;27.30;51.80;;;;;;4928948;29;20462;-42
2021/09/05 09:27:15;;;;;;;16.63;11.70;;;27.50;51.60;;;;;;4925769;29;20449;-43
2021/09/05 09:29:42;;;;;;;12.73;10.50;;;27.60;50.30;;;;;;4927662;29;21639;-43
2021/09/05 09:32:22;;;;;;;15.17;12.00;;;27.70;49.90;;;;;;4929693;29;20448;-43
2021/09/05 09:34:50;;;;;;;13.33;11.10;;;27.70;49.60;;;;;;4922909;29;20513;-42
2021/09/05 09:37:19;;;;;;;15.57;12.00;;;27.60;50.10;;;;;;4925482;29;20218;-42
2021/09/05 09:39:51;;;;;;;11.57;10.37;;;27.40;50.00;;;;;;4925739;29;20454;-42
2021/09/05 09:42:35;;;;;;;13.83;10.97;;;27.20;50.50;;;;;;4928297;29;20455;-42
2021/09/05 09:45:15;;;;;;;15.10;11.30;;;27.00;50.80;;;;;;4924623;29;20751;-43
2021/09/05 09:47:50;;;;;;;14.23;11.23;;;26.80;51.10;;;;;;4925552;29;20451;-43
2021/09/05 09:50:21;;;;;;;14.50;11.13;;;26.60;51.60;;;;;;4923923;29;20977;-43
2021/09/05 09:52:48;;;;;;;14.93;11.00;;;26.40;52.00;;;;;;4925711;29;20474;-43
2021/09/05 09:55:15;;;;;;;17.47;11.63;;;26.30;52.60;;;;;;4932083;29;20487;-43
2021/09/05 09:57:41;;;;;;;12.63;9.80;;;26.30;52.70;;;;;;4932568;29;20440;-43
2021/09/05 10:00:09;;;;;;;14.80;10.70;;;26.20;52.90;;;;;;4927929;29;20474;-43
2021/09/05 10:02:43;;;;;;;13.17;10.77;;;26.20;52.30;;;;;;4931168;29;20895;-44
2021/09/05 10:05:13;;;;;;;13.63;10.83;;;26.20;52.10;;;;;;4928841;29;20582;-43
2021/09/05 10:07:42;;;;;;;13.93;11.27;;;26.30;52.00;;;;;;4930048;29;20489;-42
2021/09/05 10:10:11;;;;;;;12.80;10.77;;;26.40;52.20;;;;;;4928150;29;20455;-43
2021/09/05 10:12:42;;;;;;;17.93;10.43;;;26.70;52.10;;;;;;4928626;29;20827;-43
2021/09/05 10:15:09;;;;;;;14.00;10.33;;;26.90;51.50;;;;;;4929265;29;20494;-43
2021/09/05 10:17:38;;;;;;;13.17;10.87;;;27.30;50.80;;;;;;4932326;28;20577;-42
2021/09/05 10:20:06;;;;;;;16.63;10.83;;;27.70;49.70;;;;;;4925727;29;20459;-42
2021/09/05 10:22:33;;;;;;;15.37;11.70;;;28.30;49.20;;;;;;4926432;29;20444;-43
2021/09/05 10:25:03;;;;;;;11.50;10.30;;;28.90;48.00;;;;;;4927823;29;20207;-43
2021/09/05 10:27:36;;;;;;;12.23;10.23;;;29.40;47.30;;;;;;4925501;29;20309;-42
2021/09/05 10:30:08;;;;;;;11.00;9.80;;;29.70;46.20;;;;;;4932325;29;20226;-42
2021/09/05 10:32:55;;;;;;;13.23;9.85;;;30.00;45.70;;;;;;4929013;29;20215;-42
2021/09/05 10:35:22;;;;;;;12.73;10.20;;;30.30;45.10;;;;;;4925663;29;20348;-42
2021/09/05 10:37:50;;;;;;;12.48;9.93;;;30.50;44.60;;;;;;4931056;29;20203;-42
2021/09/05 10:40:17;;;;;;;10.05;8.48;;;30.80;44.40;;;;;;4929397;29;20638;-42
2021/09/05 10:42:58;;;;;;;12.38;9.63;;;31.10;44.10;;;;;;4928596;29;20199;-42
2021/09/05 10:45:26;;;;;;;12.38;10.13;;;31.30;43.70;;;;;;4926691;29;20210;-42
2021/09/05 10:47:52;;;;;;;14.73;10.07;;;31.50;43.40;;;;;;4929767;28;20211;-42
2021/09/05 10:50:37;;;;;;;11.75;10.00;;;31.60;43.00;;;;;;4929059;29;20215;-42
2021/09/05 10:53:22;;;;;;;13.50;10.57;;;31.60;42.60;;;;;;4930878;29;20638;-43
2021/09/05 10:56:21;;;;;;;10.43;9.30;;;31.60;42.50;;;;;;4929737;29;20231;-42
2021/09/05 10:58:54;;;;;;;10.10;9.10;;;31.40;42.90;;;;;;4916160;29;20333;-42
2021/09/05 11:01:25;;;;;;;10.55;8.13;;;31.10;43.00;;;;;;4927662;29;20212;-42
2021/09/05 11:06:44;;;;;;;13.32;9.27;;;30.40;43.70;;;;;;4928044;29;20214;-41
2021/09/05 11:12:25;;;;;;;13.00;10.10;;;29.80;44.30;;;;;;4931707;29;20214;-42
2021/09/05 11:14:54;;;;;;;15.87;12.63;;;29.50;45.00;;;;;;4929800;29;20532;-41
2021/09/05 11:17:24;;;;;;;11.90;10.60;;;29.20;45.40;;;;;;4929516;29;20204;-41
2021/09/05 11:19:59;;;;;;;10.53;9.20;;;29.00;45.90;;;;;;4927383;29;20226;-42
2021/09/05 11:22:28;;;;;;;12.03;8.57;;;28.80;46.00;;;;;;4926711;29;20705;-42
2021/09/05 11:25:06;;;;;;;9.80;8.53;;;28.50;46.30;;;;;;4929402;29;20215;-42
2021/09/05 11:27:33;;;;;;;8.40;7.50;;;28.30;46.50;;;;;;4926029;29;20218;-42
2021/09/05 11:30:02;;;;;;;10.20;8.80;;;28.10;46.20;;;;;;4930636;29;20460;-42
2021/09/05 11:32:29;;;;;;;8.90;7.90;;;28.00;46.80;;;;;;4924771;29;20209;-42
2021/09/05 11:34:56;;;;;;;10.13;8.57;;;27.80;47.40;;;;;;4932039;29;20238;-42
2021/09/05 11:37:34;;;;;;;9.70;8.70;;;27.70;47.80;;;;;;4929040;29;20897;-42
2021/09/05 11:40:18;;;;;;;9.90;8.80;;;27.50;48.20;;;;;;4928732;29;20847;-42
2021/09/05 11:42:47;;;;;;;8.73;7.83;;;27.40;48.70;;;;;;4926797;29;20475;-43
2021/09/05 11:45:15;;;;;;;11.27;9.33;;;27.30;48.50;;;;;;4915054;29;20456;-43
2021/09/05 11:47:43;;;;;;;11.87;8.67;;;27.20;48.80;;;;;;4926818;29;20456;-42
2021/09/05 11:50:15;;;;;;;14.03;11.57;;;27.20;49.90;;;;;;4928760;29;20468;-42
2021/09/05 11:52:43;;;;;;;13.23;10.40;;;27.00;49.40;;;;;;4927692;29;20460;-43
2021/09/05 11:55:17;;;;;;;9.10;8.20;;;26.80;49.10;;;;;;4928293;29;20491;-42
2021/09/05 11:57:58;;;;;;;9.00;7.87;;;26.80;49.50;;;;;;4927075;29;20462;-42
2021/09/05 12:00:38;;;;;;;10.17;8.53;;;26.70;49.90;;;;;;4926899;29;20953;-42
2021/09/05 12:03:08;;;;;;;9.33;8.20;;;26.70;50.50;;;;;;4926126;29;20448;-43
2021/09/05 12:05:36;;;;;;;10.67;7.50;;;26.60;49.40;;;;;;4926657;29;20450;-43
2021/09/05 12:08:03;;;;;;;9.60;7.73;;;26.50;49.20;;;;;;4927032;29;20455;-43
2021/09/05 12:10:34;;;;;;;11.30;7.53;;;26.50;49.60;;;;;;4926966;29;20539;-43
2021/09/05 12:13:04;;;;;;;9.13;8.20;;;26.50;49.90;;;;;;4926248;29;20486;-42
2021/09/05 12:15:48;;;;;;;14.43;8.47;;;26.40;49.50;;;;;;4927871;29;20586;-42
2021/09/05 12:18:26;;;;;;;10.90;8.47;;;26.40;49.60;;;;;;4928158;29;20953;-43
2021/09/05 12:21:00;;;;;;;9.00;8.10;;;26.30;50.20;;;;;;4927890;29;20470;-42
2021/09/05 12:23:33;;;;;;;8.57;7.67;;;26.30;49.70;;;;;;4929373;29;20891;-42
2021/09/05 12:26:01;;;;;;;12.80;8.70;;;26.30;49.90;;;;;;4929138;29;20475;-43
2021/09/05 12:28:31;;;;;;;9.70;8.23;;;26.30;50.40;;;;;;4926361;29;20468;-42
2021/09/05 12:31:05;;;;;;;9.07;8.00;;;26.40;50.40;;;;;;4927188;29;20485;-42
2021/09/05 12:33:38;;;;;;;8.00;7.20;;;26.50;50.20;;;;;;4925643;29;20463;-43
2021/09/05 12:36:07;;;;;;;8.30;7.43;;;26.50;49.70;;;;;;4924566;29;20571;-43
2021/09/05 12:38:36;;;;;;;7.47;6.50;;;26.60;49.00;;;;;;4928185;29;20459;-43
2021/09/05 12:41:14;;;;;;;9.87;6.43;;;26.50;48.60;;;;;;4924474;29;20459;-43
2021/09/05 12:43:50;;;;;;;7.70;6.40;;;26.50;48.40;;;;;;4928933;29;20466;-43